Time;durP1;ratioP1;P1;durP2;ratioP2;P2;SDS_P1;SDS_P2;PMS_P1;PMS_P2;Temp;Humidity;BMP_temperature;BMP_pressure;BME280_temperature;BME280_humidity;BME280_pressure;Samples;Min_cycle;Max_cycle;Signal;HPM_P1;HPM_P2
2023/03/29 00:00:09;;;;;;;6.43;2.50;;;5.00;87.90;;;;;;5065654;28;20367;-86
2023/03/29 00:02:35;;;;;;;3.72;2.40;;;4.90;93.00;;;;;;5054728;28;20383;-87
2023/03/29 00:05:03;;;;;;;5.72;2.40;;;4.90;91.30;;;;;;5075676;28;20081;-87
2023/03/29 00:07:32;;;;;;;4.82;2.47;;;4.90;94.20;;;;;;5077047;28;20036;-87
2023/03/29 00:10:03;;;;;;;4.65;2.20;;;4.90;83.90;;;;;;5071331;28;20501;-87
2023/03/29 00:12:29;;;;;;;3.28;2.08;;;4.90;78.70;;;;;;5057469;28;20052;-87
2023/03/29 00:14:55;;;;;;;5.40;2.60;;;5.00;63.40;;;;;;5055935;28;20047;-84
2023/03/29 00:17:21;;;;;;;7.35;2.97;;;4.90;95.10;;;;;;5074784;28;20098;-85
2023/03/29 00:19:47;;;;;;;4.82;2.30;;;4.90;79.40;;;;;;5054642;28;20444;-85
2023/03/29 00:22:13;;;;;;;4.35;2.60;;;5.00;95.90;;;;;;5055596;28;20110;-84
2023/03/29 00:24:39;;;;;;;4.32;2.22;;;4.90;85.20;;;;;;5057108;28;20485;-86
2023/03/29 00:27:05;;;;;;;4.20;2.55;;;4.90;79.20;;;;;;5074370;28;20039;-86
2023/03/29 00:29:31;;;;;;;5.97;2.63;;;5.00;70.00;;;;;;5058110;28;20044;-87
2023/03/29 00:31:57;;;;;;;6.28;2.65;;;5.00;43.70;;;;;;5062200;28;20039;-86
2023/03/29 00:34:25;;;;;;;3.53;2.42;;;5.00;40.60;;;;;;5042009;28;20046;-86
2023/03/29 00:36:51;;;;;;;4.35;2.50;;;5.00;39.20;;;;;;5073423;28;20059;-86
2023/03/29 00:39:19;;;;;;;6.60;2.70;;;5.00;40.80;;;;;;5056937;28;20483;-87
2023/03/29 00:41:46;;;;;;;8.00;2.50;;;5.10;37.10;;;;;;5064122;28;20077;-87
2023/03/29 00:44:49;;;;;;;5.78;2.88;;;5.10;31.70;;;;;;5072420;28;20051;-87
2023/03/29 00:47:17;;;;;;;5.13;3.05;;;5.10;37.30;;;;;;5078444;28;20040;-87
2023/03/29 00:49:44;;;;;;;5.15;2.63;;;5.10;12.10;;;;;;5055463;28;20052;-87
2023/03/29 00:52:12;;;;;;;4.20;3.00;;;5.10;3.70;;;;;;5074462;28;20040;-87
2023/03/29 00:54:42;;;;;;;5.70;2.83;;;5.20;1.00;;;;;;5062717;28;20101;-87
2023/03/29 00:57:10;;;;;;;5.10;2.95;;;5.20;1.00;;;;;;5072558;28;20064;-87
2023/03/29 00:59:38;;;;;;;6.63;3.03;;;5.20;1.00;;;;;;5091333;28;20036;-88
2023/03/29 01:02:05;;;;;;;6.07;2.88;;;5.20;1.00;;;;;;5072454;28;20101;-87
2023/03/29 01:05:17;;;;;;;6.10;3.17;;;5.20;1.00;;;;;;5068345;28;20070;-88
2023/03/29 01:07:56;;;;;;;7.25;2.67;;;5.30;3.30;;;;;;5060348;28;20192;-89
2023/03/29 01:11:10;;;;;;;5.40;2.90;;;5.30;9.40;;;;;;5056851;28;20048;-88
2023/03/29 01:13:56;;;;;;;4.75;3.15;;;5.30;9.10;;;;;;5061842;28;20081;-87
2023/03/29 01:16:24;;;;;;;6.22;3.22;;;5.30;1.00;;;;;;5056982;28;20044;-88
2023/03/29 01:18:51;;;;;;;7.55;3.47;;;5.30;1.00;;;;;;5076552;28;20040;-87
2023/03/29 01:21:19;;;;;;;5.10;3.30;;;5.30;1.00;;;;;;5063684;28;20043;-88
2023/03/29 01:23:45;;;;;;;9.63;3.70;;;5.30;1.00;;;;;;5074822;28;20040;-90
2023/03/29 01:26:29;;;;;;;5.78;3.50;;;5.30;1.00;;;;;;5059337;28;20067;-87
2023/03/29 01:29:00;;;;;;;6.13;3.60;;;5.30;20.60;;;;;;5071290;28;20089;-88
2023/03/29 01:31:31;;;;;;;9.63;3.58;;;5.30;4.30;;;;;;5057638;28;20126;-83
2023/03/29 01:34:08;;;;;;;6.45;3.72;;;5.30;4.30;;;;;;5055876;28;20051;-87
2023/03/29 01:36:48;;;;;;;8.98;4.00;;;5.30;14.90;;;;;;5088204;28;20484;-87
2023/03/29 01:39:14;;;;;;;6.90;3.92;;;5.30;25.80;;;;;;5074042;28;20044;-85
2023/03/29 01:41:58;;;;;;;5.57;4.00;;;5.30;17.20;;;;;;5055694;28;20132;-85
2023/03/29 01:44:33;;;;;;;5.53;3.72;;;5.30;50.90;;;;;;5061852;28;20040;-84
2023/03/29 01:47:11;;;;;;;6.30;3.65;;;5.30;8.10;;;;;;5069119;28;20052;-85
2023/03/29 01:49:56;;;;;;;6.88;3.25;;;5.30;40.50;;;;;;5082173;28;20052;-85
2023/03/29 01:52:30;;;;;;;10.73;3.80;;;5.30;25.40;;;;;;5083715;28;20056;-85
2023/03/29 01:55:03;;;;;;;7.93;3.80;;;5.30;16.50;;;;;;5087694;28;20545;-85
2023/03/29 01:57:32;;;;;;;10.80;4.63;;;5.30;28.20;;;;;;5076156;28;20063;-86
2023/03/29 01:59:59;;;;;;;5.25;3.72;;;5.30;27.80;;;;;;5057425;28;20055;-85
2023/03/29 02:02:27;;;;;;;7.25;3.83;;;5.30;30.80;;;;;;5039775;28;20087;-85
2023/03/29 02:04:54;;;;;;;7.60;3.85;;;5.30;58.30;;;;;;5056094;28;20388;-85
2023/03/29 02:07:25;;;;;;;7.20;3.95;;;5.30;43.90;;;;;;5061884;28;20039;-85
2023/03/29 02:09:53;;;;;;;7.20;3.42;;;5.30;51.30;;;;;;5060133;28;20119;-87
2023/03/29 02:12:19;;;;;;;7.20;4.05;;;5.30;43.40;;;;;;5059144;28;20070;-87
2023/03/29 02:14:45;;;;;;;7.05;3.88;;;5.30;57.30;;;;;;5090224;28;20127;-87
2023/03/29 02:17:24;;;;;;;9.98;4.18;;;5.30;35.10;;;;;;5071360;28;20131;-86
2023/03/29 02:19:56;;;;;;;7.28;4.45;;;5.30;34.20;;;;;;5064641;28;20488;-86
2023/03/29 02:22:29;;;;;;;6.38;4.20;;;5.30;24.10;;;;;;5073062;28;20078;-86
2023/03/29 02:24:57;;;;;;;7.53;3.80;;;5.30;47.70;;;;;;5040269;28;20105;-86
2023/03/29 02:27:26;;;;;;;6.63;3.92;;;5.30;25.40;;;;;;5070274;28;20125;-86
2023/03/29 02:29:52;;;;;;;9.48;4.93;;;5.30;41.90;;;;;;5078193;28;20401;-86
2023/03/29 02:32:32;;;;;;;10.18;4.00;;;5.30;39.20;;;;;;5039657;28;20048;-86
2023/03/29 02:35:06;;;;;;;8.43;4.63;;;5.30;54.20;;;;;;5077886;28;20033;-86
2023/03/29 02:37:35;;;;;;;9.50;4.53;;;5.30;51.70;;;;;;5067556;28;20127;-86
2023/03/29 02:40:11;;;;;;;9.52;4.05;;;5.30;89.20;;;;;;5051344;28;20123;-85
2023/03/29 02:42:37;;;;;;;;;;;5.30;84.50;;;;;;5067281;28;20045;-86
2023/03/29 02:45:04;;;;;;;8.07;4.30;;;5.20;99.90;;;;;;5067566;28;20273;-86
2023/03/29 02:47:55;;;;;;;7.45;3.85;;;5.30;99.90;;;;;;5048106;28;21238;-86
2023/03/29 02:50:23;;;;;;;8.30;4.55;;;5.30;97.30;;;;;;5084191;28;20044;-85
2023/03/29 02:52:53;;;;;;;8.85;4.70;;;5.30;92.70;;;;;;5054688;28;20051;-85
2023/03/29 02:55:22;;;;;;;11.15;4.88;;;5.30;98.80;;;;;;5085636;28;20150;-87
2023/03/29 02:57:47;;;;;;;7.68;4.40;;;5.30;81.80;;;;;;5046678;28;20047;-86
2023/03/29 03:00:13;;;;;;;8.23;5.20;;;5.30;48.20;;;;;;5088477;28;20437;-85
2023/03/29 03:02:40;;;;;;;7.80;4.75;;;5.30;55.80;;;;;;5066742;28;20461;-87
2023/03/29 03:05:07;;;;;;;10.63;4.55;;;5.40;65.40;;;;;;5052975;28;20478;-85
2023/03/29 03:07:32;;;;;;;10.45;5.40;;;5.40;67.00;;;;;;5033911;28;20038;-86
2023/03/29 03:09:58;;;;;;;9.20;5.50;;;5.40;47.60;;;;;;5046853;28;20048;-87
2023/03/29 03:12:24;;;;;;;8.82;5.32;;;5.40;58.80;;;;;;5083876;28;20469;-86
2023/03/29 03:14:50;;;;;;;10.13;5.85;;;5.40;53.00;;;;;;5059334;28;20127;-84
2023/03/29 03:17:17;;;;;;;8.98;5.43;;;5.50;61.00;;;;;;5045381;28;20622;-86
2023/03/29 03:19:43;;;;;;;11.05;5.97;;;5.40;67.20;;;;;;5037846;28;20058;-86
2023/03/29 03:22:08;;;;;;;9.02;5.25;;;5.50;44.10;;;;;;5080473;28;20139;-86
2023/03/29 03:24:34;;;;;;;11.30;6.55;;;5.40;56.10;;;;;;5066934;28;20051;-86
2023/03/29 03:27:00;;;;;;;13.85;6.38;;;5.40;67.00;;;;;;5055034;28;20474;-86
2023/03/29 03:29:27;;;;;;;12.27;7.07;;;5.50;67.10;;;;;;5056292;28;20496;-86
2023/03/29 03:31:53;;;;;;;14.40;6.50;;;5.50;61.90;;;;;;5070480;28;20044;-85
2023/03/29 03:34:19;;;;;;;12.13;6.50;;;5.50;50.50;;;;;;5083771;28;20052;-86
2023/03/29 03:36:46;;;;;;;11.73;6.68;;;5.50;66.20;;;;;;5056647;28;20110;-86
2023/03/29 03:39:13;;;;;;;14.35;8.23;;;5.50;57.00;;;;;;5086630;28;20115;-86
2023/03/29 03:41:39;;;;;;;14.63;7.07;;;5.50;55.00;;;;;;5062763;28;20044;-85
2023/03/29 03:44:05;;;;;;;10.68;6.82;;;5.50;62.00;;;;;;5071326;28;20457;-86
2023/03/29 03:46:31;;;;;;;12.75;7.55;;;5.50;64.30;;;;;;5055399;28;20044;-86
2023/03/29 03:48:58;;;;;;;12.82;7.45;;;5.60;67.60;;;;;;5046629;28;20133;-85
2023/03/29 03:51:24;;;;;;;12.25;7.15;;;5.50;76.20;;;;;;5069139;28;20607;-86
2023/03/29 03:53:50;;;;;;;14.60;7.55;;;5.60;81.60;;;;;;5068635;28;20048;-86
2023/03/29 03:56:16;;;;;;;13.82;7.95;;;5.50;50.50;;;;;;5051218;28;20497;-86
2023/03/29 03:58:42;;;;;;;17.30;7.72;;;5.60;51.90;;;;;;5087588;28;20066;-85
2023/03/29 04:01:08;;;;;;;14.85;8.10;;;5.60;56.70;;;;;;5048834;28;20036;-86
2023/03/29 04:03:36;;;;;;;14.75;7.68;;;5.60;52.50;;;;;;5056322;28;20059;-85
2023/03/29 04:06:02;;;;;;;13.98;8.13;;;5.60;55.60;;;;;;5071386;28;20728;-86
2023/03/29 04:08:29;;;;;;;12.63;7.60;;;5.60;55.20;;;;;;5053035;28;20087;-85
2023/03/29 04:10:56;;;;;;;14.88;7.85;;;5.60;57.30;;;;;;5052869;28;20048;-85
2023/03/29 04:13:22;;;;;;;13.25;7.80;;;5.60;65.70;;;;;;5068430;28;20051;-85
2023/03/29 04:15:55;;;;;;;13.85;7.95;;;5.60;56.30;;;;;;5068855;28;20389;-86
2023/03/29 04:18:25;;;;;;;15.02;7.68;;;5.60;43.00;;;;;;5072748;28;20048;-85
2023/03/29 04:20:50;;;;;;;11.90;7.88;;;5.60;47.20;;;;;;5071888;28;20078;-86
2023/03/29 04:23:17;;;;;;;14.23;7.70;;;5.70;27.80;;;;;;5047776;28;20044;-85
2023/03/29 04:25:43;;;;;;;13.80;7.75;;;5.60;27.70;;;;;;5039471;28;20477;-85
2023/03/29 04:28:10;;;;;;;12.63;8.35;;;5.60;32.80;;;;;;5076655;28;20047;-86
2023/03/29 04:30:36;;;;;;;16.27;7.85;;;5.60;28.50;;;;;;5056247;28;20097;-84
2023/03/29 04:33:02;;;;;;;14.68;8.07;;;5.60;36.50;;;;;;5083963;28;20043;-85
2023/03/29 04:35:28;;;;;;;14.93;8.27;;;5.70;34.40;;;;;;5055642;28;20059;-86
2023/03/29 04:37:54;;;;;;;12.95;7.25;;;5.70;28.40;;;;;;5062639;28;20059;-86
2023/03/29 04:40:20;;;;;;;15.45;7.90;;;5.70;23.90;;;;;;5041585;28;20065;-86
2023/03/29 04:42:46;;;;;;;16.23;8.68;;;5.80;25.60;;;;;;5073092;28;20112;-86
2023/03/29 04:45:13;;;;;;;12.68;7.68;;;5.70;34.00;;;;;;5084408;28;20521;-87
2023/03/29 04:47:40;;;;;;;18.55;8.73;;;5.70;35.80;;;;;;5040856;28;20044;-86
2023/03/29 04:50:07;;;;;;;15.45;8.23;;;5.70;51.50;;;;;;5054267;28;20224;-85
2023/03/29 04:52:33;;;;;;;12.90;7.53;;;5.70;55.50;;;;;;5070154;28;20106;-88
2023/03/29 04:55:00;;;;;;;14.82;8.07;;;5.70;56.10;;;;;;5050500;28;20118;-87
2023/03/29 04:57:26;;;;;;;12.20;7.57;;;5.80;64.40;;;;;;5059036;28;20542;-86
2023/03/29 04:59:52;;;;;;;15.25;8.02;;;5.80;65.80;;;;;;5059349;28;21625;-85
2023/03/29 05:02:18;;;;;;;14.07;7.32;;;5.70;95.60;;;;;;5054559;28;20054;-88
2023/03/29 05:04:44;;;;;;;13.82;8.43;;;5.70;87.60;;;;;;5062482;28;20126;-85
2023/03/29 05:07:11;;;;;;;13.75;7.50;;;5.80;92.60;;;;;;5042805;28;20074;-84
2023/03/29 05:09:38;;;;;;;13.95;8.60;;;5.80;97.50;;;;;;5044348;28;20055;-84
2023/03/29 05:12:04;;;;;;;13.23;8.30;;;5.80;99.90;;;;;;5053580;28;20054;-85
2023/03/29 05:14:30;;;;;;;20.23;8.25;;;5.80;92.10;;;;;;5067926;28;20044;-83
2023/03/29 05:16:56;;;;;;;14.23;7.63;;;5.80;93.00;;;;;;5083751;28;20067;-83
2023/03/29 05:19:21;;;;;;;16.35;8.48;;;5.80;94.30;;;;;;5055432;28;20055;-84
2023/03/29 05:21:48;;;;;;;14.48;8.07;;;5.90;76.20;;;;;;5060121;28;20126;-83
2023/03/29 05:24:15;;;;;;;17.25;7.68;;;5.90;70.30;;;;;;5058684;28;20111;-84
2023/03/29 05:26:41;;;;;;;13.15;7.75;;;5.90;89.50;;;;;;5066828;28;20058;-83
2023/03/29 05:29:07;;;;;;;13.77;7.97;;;5.90;81.40;;;;;;5055389;28;20163;-83
2023/03/29 05:31:36;;;;;;;15.05;7.68;;;5.90;98.30;;;;;;5057089;28;20060;-87
2023/03/29 05:34:03;;;;;;;15.40;8.23;;;5.90;98.60;;;;;;5066962;28;20048;-84
2023/03/29 05:36:29;;;;;;;15.25;7.43;;;5.90;99.90;;;;;;5062806;28;20770;-83
2023/03/29 05:38:55;;;;;;;14.13;7.70;;;5.90;99.90;;;;;;5037860;28;20044;-83
2023/03/29 05:41:23;;;;;;;13.52;7.18;;;6.00;99.90;;;;;;5046723;28;20095;-83
2023/03/29 05:43:49;;;;;;;16.65;8.07;;;5.90;99.90;;;;;;5072081;28;20040;-83
2023/03/29 05:46:15;;;;;;;15.55;7.47;;;5.90;99.90;;;;;;5036884;28;20400;-83
2023/03/29 05:48:41;;;;;;;16.25;7.60;;;5.90;99.90;;;;;;5053726;28;20607;-83
2023/03/29 05:51:07;;;;;;;18.20;8.13;;;5.80;99.90;;;;;;5046875;28;20097;-83
2023/03/29 05:53:33;;;;;;;13.32;8.10;;;5.80;99.90;;;;;;5049856;28;20134;-84
2023/03/29 05:55:58;;;;;;;15.35;8.27;;;5.80;99.90;;;;;;5062941;28;20059;-83
2023/03/29 05:58:25;;;;;;;15.65;8.13;;;5.70;99.90;;;;;;5060980;28;20044;-81
2023/03/29 06:00:51;;;;;;;16.80;8.65;;;5.60;99.90;;;;;;5071404;28;20553;-83
2023/03/29 06:03:24;;;;;;;14.95;9.10;;;5.60;99.90;;;;;;5049922;28;20131;-84
2023/03/29 06:06:02;;;;;;;14.88;8.18;;;5.70;99.90;;;;;;5082454;28;20088;-84
2023/03/29 06:08:29;;;;;;;14.02;8.63;;;5.60;99.90;;;;;;5053068;28;20054;-84
2023/03/29 06:11:07;;;;;;;15.98;8.93;;;5.60;1.00;;;;;;5052389;28;20051;-84
2023/03/29 06:13:33;;;;;;;16.98;8.32;;;5.60;1.00;;;;;;5070543;28;20052;-84
2023/03/29 06:16:00;;;;;;;14.50;8.52;;;5.50;1.00;;;;;;5068851;28;20147;-84
2023/03/29 06:18:25;;;;;;;16.35;8.73;;;5.70;1.00;;;;;;5088101;28;20054;-84
2023/03/29 06:20:52;;;;;;;16.77;8.98;;;5.60;1.00;;;;;;5067821;28;20040;-85
2023/03/29 06:23:18;;;;;;;17.75;9.35;;;5.60;1.00;;;;;;5053335;28;20489;-83
2023/03/29 06:25:45;;;;;;;16.65;9.43;;;5.70;1.00;;;;;;5067559;28;20051;-83
2023/03/29 06:28:12;;;;;;;17.92;10.50;;;5.60;1.00;;;;;;5067129;28;20485;-84
2023/03/29 06:30:38;;;;;;;19.30;9.45;;;5.70;1.00;;;;;;5054190;28;20063;-84
2023/03/29 06:33:07;;;;;;;19.17;9.65;;;5.80;1.00;;;;;;5055099;28;20040;-84
2023/03/29 06:35:34;;;;;;;18.77;9.13;;;5.70;1.00;;;;;;5067889;28;20051;-84
2023/03/29 06:38:00;;;;;;;15.50;9.38;;;5.70;1.00;;;;;;5052514;28;20051;-86
2023/03/29 06:40:26;;;;;;;19.08;10.30;;;5.80;1.00;;;;;;5058468;28;20040;-87
2023/03/29 06:42:58;;;;;;;17.33;10.20;;;5.80;1.00;;;;;;5053126;28;20055;-84
2023/03/29 06:45:29;;;;;;;16.80;9.73;;;5.80;1.00;;;;;;5082877;28;20052;-85
2023/03/29 06:47:55;;;;;;;16.02;9.77;;;5.80;1.00;;;;;;5077421;28;20043;-85
2023/03/29 06:50:22;;;;;;;17.98;9.57;;;5.90;1.00;;;;;;5054893;28;20602;-84
2023/03/29 06:52:48;;;;;;;20.98;10.10;;;5.90;1.00;;;;;;5050665;28;20083;-85
2023/03/29 06:55:15;;;;;;;15.75;9.23;;;6.10;1.00;;;;;;5065428;28;20053;-82
2023/03/29 06:57:41;;;;;;;18.08;10.30;;;6.10;1.00;;;;;;5046297;28;20042;-83
2023/03/29 07:00:18;;;;;;;17.88;9.70;;;6.10;1.00;;;;;;5052244;28;20401;-84
2023/03/29 07:02:45;;;;;;;16.13;9.82;;;6.10;1.00;;;;;;5055648;28;20568;-85
2023/03/29 07:05:12;;;;;;;17.50;9.15;;;6.20;1.00;;;;;;5039386;28;20122;-84
2023/03/29 07:07:52;;;;;;;18.85;9.80;;;6.20;1.00;;;;;;5036463;28;20036;-84
2023/03/29 07:10:20;;;;;;;18.65;8.63;;;6.20;1.00;;;;;;5048701;28;20066;-85
2023/03/29 07:12:47;;;;;;;17.33;9.40;;;6.20;1.00;;;;;;5053400;28;20056;-84
2023/03/29 07:15:14;;;;;;;15.80;8.93;;;6.20;1.00;;;;;;5054998;28;20040;-84
2023/03/29 07:17:40;;;;;;;17.02;9.85;;;6.20;1.00;;;;;;5034813;28;20043;-85
2023/03/29 07:20:12;;;;;;;17.15;9.35;;;6.30;1.00;;;;;;5071594;28;20542;-84
2023/03/29 07:22:42;;;;;;;15.63;9.57;;;6.30;1.00;;;;;;5068394;28;20178;-84
2023/03/29 07:25:09;;;;;;;16.17;8.15;;;6.40;1.00;;;;;;5061912;28;20049;-84
2023/03/29 07:27:40;;;;;;;14.70;8.90;;;6.50;1.00;;;;;;5038394;28;20040;-84
2023/03/29 07:30:09;;;;;;;14.75;8.68;;;6.60;1.00;;;;;;5070348;28;20123;-85
2023/03/29 07:32:37;;;;;;;13.85;8.15;;;6.70;1.00;;;;;;5043957;28;20044;-84
2023/03/29 07:35:05;;;;;;;17.50;9.15;;;6.70;1.00;;;;;;5087452;28;20366;-84
2023/03/29 07:37:34;;;;;;;14.70;8.70;;;6.70;1.00;;;;;;5087229;28;20054;-85
2023/03/29 07:40:02;;;;;;;19.10;8.60;;;6.80;1.00;;;;;;5070333;28;20044;-84
2023/03/29 07:42:28;;;;;;;15.18;8.10;;;6.80;1.00;;;;;;5048190;28;20051;-84
2023/03/29 07:44:54;;;;;;;14.20;7.72;;;6.90;1.00;;;;;;5053547;28;20480;-84
2023/03/29 07:47:20;;;;;;;12.40;8.40;;;6.90;1.00;;;;;;5053196;28;20048;-85
2023/03/29 07:49:46;;;;;;;13.18;7.75;;;6.90;1.00;;;;;;5058525;28;20050;-84
2023/03/29 07:52:11;;;;;;;16.38;7.82;;;7.00;1.00;;;;;;5041776;28;20403;-85
2023/03/29 07:54:37;;;;;;;13.18;7.63;;;6.90;1.00;;;;;;5040788;28;20109;-84
2023/03/29 07:57:03;;;;;;;14.30;7.60;;;7.00;1.00;;;;;;5041991;28;20051;-84
2023/03/29 07:59:29;;;;;;;15.40;8.05;;;7.00;1.00;;;;;;5041135;28;20130;-84
2023/03/29 08:01:55;;;;;;;15.27;7.75;;;7.00;1.00;;;;;;5041085;28;20052;-84
2023/03/29 08:04:21;;;;;;;14.93;7.70;;;7.10;99.90;;;;;;5056937;28;20706;-84
2023/03/29 08:06:47;;;;;;;11.30;7.70;;;7.00;99.90;;;;;;5074583;28;20439;-85
2023/03/29 08:09:13;;;;;;;14.30;8.13;;;7.10;99.90;;;;;;5056965;28;20044;-84
2023/03/29 08:11:39;;;;;;;13.38;7.10;;;7.20;99.90;;;;;;5037920;28;20093;-84
2023/03/29 08:14:06;;;;;;;14.35;7.10;;;7.10;99.90;;;;;;5054226;28;20552;-84
2023/03/29 08:16:32;;;;;;;13.52;7.40;;;7.20;99.90;;;;;;5057513;28;20352;-85
2023/03/29 08:18:58;;;;;;;10.65;6.78;;;7.20;99.90;;;;;;5057060;28;20054;-84
2023/03/29 08:21:24;;;;;;;13.95;7.05;;;7.30;99.90;;;;;;5030832;28;20054;-83
2023/03/29 08:23:50;;;;;;;15.63;7.65;;;7.30;99.90;;;;;;5054004;28;20041;-83
2023/03/29 08:26:16;;;;;;;13.65;7.50;;;7.30;99.90;;;;;;5050322;28;20044;-83
2023/03/29 08:28:42;;;;;;;13.38;8.50;;;7.40;99.90;;;;;;5070466;28;20059;-84
2023/03/29 08:31:11;;;;;;;13.63;7.63;;;7.50;99.90;;;;;;5073189;28;20051;-83
2023/03/29 08:33:37;;;;;;;11.52;7.05;;;7.60;99.90;;;;;;5071449;28;20044;-84
2023/03/29 08:36:03;;;;;;;12.90;8.13;;;7.70;99.90;;;;;;5064757;28;20044;-84
2023/03/29 08:38:29;;;;;;;13.77;8.32;;;7.80;99.90;;;;;;5057914;28;20044;-85
2023/03/29 08:40:55;;;;;;;9.68;6.40;;;8.00;99.90;;;;;;5056038;28;20130;-84
2023/03/29 08:43:33;;;;;;;12.90;7.95;;;8.30;99.90;;;;;;5036478;28;20075;-84
2023/03/29 08:46:19;;;;;;;11.15;6.53;;;8.40;99.90;;;;;;5059134;28;20187;-85
2023/03/29 08:48:52;;;;;;;10.63;6.65;;;8.60;99.90;;;;;;5064592;28;20087;-84
2023/03/29 08:51:29;;;;;;;11.55;6.75;;;8.90;99.90;;;;;;5072103;28;20047;-85
2023/03/29 08:54:01;;;;;;;12.50;5.70;;;9.30;99.90;;;;;;5065198;28;20056;-85
2023/03/29 08:56:29;;;;;;;9.90;5.93;;;9.60;64.90;;;;;;5072279;28;20064;-84
2023/03/29 08:58:56;;;;;;;10.07;6.10;;;9.80;26.10;;;;;;5063361;28;20052;-85
2023/03/29 09:01:23;;;;;;;11.02;6.57;;;10.00;1.00;;;;;;5050409;28;20197;-85
2023/03/29 09:04:13;;;;;;;11.43;6.80;;;10.20;1.00;;;;;;5085171;28;20441;-84
2023/03/29 09:06:39;;;;;;;9.35;6.07;;;10.30;1.00;;;;;;5057849;28;20051;-87
2023/03/29 09:09:17;;;;;;;9.00;5.45;;;10.40;1.00;;;;;;5069952;28;20036;-85
2023/03/29 09:12:01;;;;;;;9.05;5.93;;;10.40;1.00;;;;;;5065333;28;20059;-87
2023/03/29 09:14:48;;;;;;;9.80;6.15;;;10.30;99.90;;;;;;5055354;28;20044;-84
2023/03/29 09:17:32;;;;;;;;;;;10.20;99.90;;;;;;5062503;28;20093;-85
2023/03/29 09:20:07;;;;;;;9.93;6.22;;;10.40;99.90;;;;;;5086166;28;19920;-85
2023/03/29 09:22:40;;;;;;;11.95;6.13;;;10.70;99.90;;;;;;5048346;28;20464;-85
2023/03/29 09:25:13;;;;;;;13.35;6.07;;;11.00;99.90;;;;;;5054984;28;20054;-84
2023/03/29 09:27:53;;;;;;;12.10;6.38;;;11.30;99.90;;;;;;5057183;28;20040;-84
2023/03/29 09:30:30;;;;;;;28.08;8.40;;;11.60;99.90;;;;;;5080606;28;20048;-85
2023/03/29 09:33:06;;;;;;;11.82;6.57;;;11.60;99.90;;;;;;5067443;28;20126;-84
2023/03/29 09:35:53;;;;;;;13.73;6.18;;;11.60;99.90;;;;;;5052006;28;20051;-84
2023/03/29 09:38:21;;;;;;;12.07;6.38;;;11.60;99.90;;;;;;5046962;28;20055;-86
2023/03/29 09:40:57;;;;;;;11.85;7.03;;;11.50;99.90;;;;;;5051227;28;20051;-81
2023/03/29 09:43:36;;;;;;;9.10;5.35;;;11.60;99.90;;;;;;5065034;28;20048;-84
2023/03/29 09:46:16;;;;;;;8.25;5.18;;;11.60;99.90;;;;;;5070867;28;20056;-86
2023/03/29 09:48:44;;;;;;;10.38;5.75;;;11.50;99.90;;;;;;5055026;28;20508;-86
2023/03/29 09:51:12;;;;;;;11.45;6.10;;;11.20;99.90;;;;;;5053499;28;20040;-85
2023/03/29 09:53:38;;;;;;;9.77;6.55;;;11.30;99.90;;;;;;5048964;28;20060;-86
2023/03/29 09:56:05;;;;;;;12.07;6.22;;;11.30;99.90;;;;;;5066990;28;20522;-85
2023/03/29 09:58:31;;;;;;;13.45;5.85;;;11.30;99.90;;;;;;5075115;28;20606;-83
2023/03/29 10:01:00;;;;;;;10.52;5.82;;;11.30;99.90;;;;;;5050821;28;20114;-82
2023/03/29 10:03:31;;;;;;;9.98;5.93;;;11.30;99.90;;;;;;5047343;28;20402;-82
2023/03/29 10:06:00;;;;;;;11.13;5.88;;;11.40;99.90;;;;;;5036049;28;20058;-82
2023/03/29 10:08:41;;;;;;;11.73;5.88;;;11.50;99.90;;;;;;5072490;28;20123;-82
2023/03/29 10:11:13;;;;;;;11.43;6.40;;;11.40;99.90;;;;;;5028178;28;20047;-82
2023/03/29 10:13:46;;;;;;;13.68;7.22;;;11.30;99.90;;;;;;5058171;28;20051;-81
2023/03/29 10:16:44;;;;;;;11.13;6.20;;;11.30;99.90;;;;;;5085332;28;20488;-82
2023/03/29 10:19:18;;;;;;;11.63;6.57;;;11.40;99.90;;;;;;5004628;28;20052;-82
2023/03/29 10:21:47;;;;;;;10.88;6.45;;;11.50;99.90;;;;;;5053744;28;20131;-81
2023/03/29 10:24:20;;;;;;;12.65;6.00;;;11.70;99.90;;;;;;5050246;28;20131;-82
2023/03/29 10:26:50;;;;;;;9.90;6.22;;;11.70;99.90;;;;;;5047047;28;20054;-80
2023/03/29 10:29:16;;;;;;;11.25;6.22;;;11.50;99.90;;;;;;5052758;28;20126;-82
2023/03/29 10:31:42;;;;;;;12.52;5.93;;;11.60;99.90;;;;;;5051640;28;20040;-81
2023/03/29 10:34:12;;;;;;;11.90;6.80;;;11.70;99.90;;;;;;5055245;28;20079;-82
2023/03/29 10:36:40;;;;;;;11.77;6.53;;;11.80;99.90;;;;;;5037244;28;20493;-82
2023/03/29 10:39:09;;;;;;;11.70;6.82;;;11.80;99.90;;;;;;5056367;28;20070;-81
2023/03/29 10:41:35;;;;;;;12.30;7.22;;;11.80;99.90;;;;;;5073387;28;20052;-83
2023/03/29 10:44:01;;;;;;;10.32;6.63;;;11.90;99.90;;;;;;5032837;28;20036;-81
2023/03/29 10:46:30;;;;;;;11.70;6.78;;;11.90;99.90;;;;;;5027099;28;20076;-82
2023/03/29 10:48:59;;;;;;;11.50;6.90;;;11.90;99.90;;;;;;5043404;28;20046;-82
2023/03/29 10:51:28;;;;;;;13.20;7.57;;;12.10;99.90;;;;;;5075257;28;20522;-81
2023/03/29 10:53:57;;;;;;;14.80;7.55;;;12.40;99.90;;;;;;5040355;28;20057;-83
2023/03/29 10:56:37;;;;;;;14.70;7.13;;;12.80;99.90;;;;;;5051845;28;20060;-83
2023/03/29 10:59:03;;;;;;;10.80;7.13;;;13.40;99.90;;;;;;5046302;28;20171;-80
2023/03/29 11:01:53;;;;;;;13.68;7.50;;;13.80;99.90;;;;;;5027442;28;20135;-81
2023/03/29 11:04:43;;;;;;;11.57;7.65;;;14.10;99.90;;;;;;5050339;28;20357;-82
2023/03/29 11:07:15;;;;;;;12.38;6.97;;;14.40;81.30;;;;;;5053783;28;20452;-83
2023/03/29 11:10:15;;;;;;;16.33;7.75;;;14.70;57.90;;;;;;5054928;28;20474;-85
2023/03/29 11:12:52;;;;;;;10.85;6.80;;;15.10;8.40;;;;;;5066143;28;20087;-83
2023/03/29 11:15:52;;;;;;;10.38;7.25;;;15.50;33.90;;;;;;5065213;28;20045;-83
2023/03/29 11:18:37;;;;;;;13.57;7.03;;;15.50;1.00;;;;;;5075639;28;20037;-83
2023/03/29 11:21:15;;;;;;;9.48;6.32;;;15.30;1.00;;;;;;5063512;28;20903;-84
2023/03/29 11:24:02;;;;;;;9.90;6.97;;;15.20;1.00;;;;;;5051132;28;20086;-83
2023/03/29 11:26:58;;;;;;;10.88;6.88;;;15.30;1.00;;;;;;5045420;28;20482;-83
2023/03/29 11:29:31;;;;;;;9.57;6.78;;;15.40;1.00;;;;;;5052058;28;20070;-83
2023/03/29 11:32:17;;;;;;;12.35;7.13;;;15.40;1.00;;;;;;5069800;28;20084;-82
2023/03/29 11:34:52;;;;;;;9.52;6.15;;;15.40;1.00;;;;;;5061325;28;20371;-83
2023/03/29 11:37:25;;;;;;;10.93;6.72;;;15.40;1.00;;;;;;5052290;28;20037;-83
2023/03/29 11:40:05;;;;;;;10.65;6.65;;;15.60;1.00;;;;;;5068569;28;20123;-84
2023/03/29 11:42:34;;;;;;;8.60;6.00;;;15.90;1.00;;;;;;5037154;28;20055;-84
2023/03/29 11:45:03;;;;;;;9.70;6.20;;;15.80;1.00;;;;;;5066043;28;20059;-84
2023/03/29 11:47:33;;;;;;;9.40;6.28;;;15.70;1.00;;;;;;5053871;28;20059;-83
2023/03/29 11:50:25;;;;;;;10.45;5.72;;;15.50;1.00;;;;;;5065856;28;20048;-83
2023/03/29 11:52:58;;;;;;;10.52;6.60;;;15.40;1.00;;;;;;5064132;28;20500;-83
2023/03/29 11:55:32;;;;;;;9.45;6.07;;;15.30;1.00;;;;;;5057611;28;20041;-83
2023/03/29 11:58:19;;;;;;;8.10;5.88;;;15.40;1.00;;;;;;5061352;28;20037;-83
2023/03/29 12:00:51;;;;;;;7.15;5.43;;;15.40;1.00;;;;;;5067014;28;20044;-84
2023/03/29 12:03:38;;;;;;;8.65;5.85;;;15.10;1.00;;;;;;5052278;28;20044;-83
2023/03/29 12:06:36;;;;;;;10.32;6.10;;;15.00;1.00;;;;;;5068360;28;20745;-85
2023/03/29 12:09:20;;;;;;;7.32;5.47;;;15.50;1.00;;;;;;5076831;28;20550;-83
2023/03/29 12:12:18;;;;;;;8.30;5.45;;;15.90;1.00;;;;;;5042997;28;20072;-83
2023/03/29 12:15:02;;;;;;;9.27;5.45;;;16.30;1.00;;;;;;5063190;28;20052;-82
2023/03/29 12:17:43;;;;;;;10.07;5.80;;;16.60;1.00;;;;;;5053664;28;20060;-83
2023/03/29 12:20:22;;;;;;;7.30;5.03;;;16.90;1.00;;;;;;5061034;28;20056;-83
2023/03/29 12:22:49;;;;;;;8.50;5.18;;;17.20;1.00;;;;;;5050808;28;20094;-83
2023/03/29 12:25:20;;;;;;;6.32;4.85;;;17.50;1.00;;;;;;5069707;28;20055;-84
2023/03/29 12:27:55;;;;;;;8.23;4.90;;;17.90;1.00;;;;;;5053935;28;20128;-83
2023/03/29 12:31:08;;;;;;;10.20;5.15;;;17.80;1.00;;;;;;5053047;28;20497;-84
2023/03/29 12:33:51;;;;;;;7.35;4.50;;;18.00;1.00;;;;;;4985197;28;20046;-84
2023/03/29 12:36:30;;;;;;;7.18;4.20;;;18.30;1.00;;;;;;4974734;28;20046;-84
2023/03/29 12:38:56;;;;;;;9.15;5.13;;;18.90;1.00;;;;;;5021271;28;20103;-85
2023/03/29 12:41:23;;;;;;;6.07;4.15;;;19.60;1.00;;;;;;5044542;28;20041;-83
2023/03/29 12:43:50;;;;;;;7.13;4.80;;;19.80;1.00;;;;;;5047865;28;20498;-83
2023/03/29 12:46:30;;;;;;;5.68;4.32;;;19.40;1.00;;;;;;5053887;28;20048;-82
2023/03/29 12:49:06;;;;;;;6.90;5.30;;;18.50;1.00;;;;;;5075078;28;20035;-83
2023/03/29 12:51:34;;;;;;;5.75;4.05;;;18.00;1.00;;;;;;5044581;28;20152;-82
2023/03/29 12:54:20;;;;;;;7.05;4.15;;;17.80;1.00;;;;;;5060926;28;20049;-82
2023/03/29 12:56:55;;;;;;;7.50;4.28;;;17.60;1.00;;;;;;5074435;28;20049;-83
2023/03/29 12:59:32;;;;;;;5.97;4.47;;;17.20;1.00;;;;;;5063646;28;20056;-83
2023/03/29 13:02:16;;;;;;;6.22;4.07;;;16.80;1.00;;;;;;5064154;28;20040;-83
2023/03/29 13:04:42;;;;;;;6.18;4.93;;;16.60;1.00;;;;;;5060769;28;20051;-82
2023/03/29 13:07:21;;;;;;;7.15;4.82;;;16.30;1.00;;;;;;5053185;28;20041;-83
2023/03/29 13:09:51;;;;;;;8.00;4.78;;;16.00;1.00;;;;;;5051695;28;20054;-81